Nimi:Crash N Burn
Lempinimi:Crash
Rotu:Amerikkalais-ranskalainen
Syntynyt:28.02.2009; 9v
Sukupuoli:Ori
Säkäkorkeus:155 cm
Väri:Tummanpunaruunikko
Ennätys:1.15,0aly - 16,0ake
Voittosumma:19 880ve
Statistiikka:56 4-6-2
Omistaja:Lokki
Kasvattaja:Burnout Stable


Crash on luonteikas ori, jonka temperamentti törmäilee useinkin ihmisten tahtoa vastaan. Nuorella oriilla on tietysti hirmuinen määrä energiaa ja uhmaa, joka tuppaa purkautumaan epätoivotuilla tavoilla. Muun muassa tallotut varpaat, riimun pitelystä tulleet punaiset kämmenet ja hampaanjäljet siellä täällä ovat melkeinpä jokapäiväisiä. Ruunausta on suunniteltu vaikean luonteen takia, mutta toivomme, että iän myötä luonne tasaantuisi ja paukapäinen ori oppisi kunnioittamaan ihmistä.

Vaikeasta luonteesta huolimatta Crashin ajollekoulutus ja ensimmäiset treenit ovat sujuneet hienosti. Kärryiltä Crash toimii lähestulkoon kuin unelma. Ori ei nikottele käskyjen tottelemisessa, eikä siltä kyllä vauhtiakaan puutu. Usein tulee vastaan hevosia, joilla jalat eivät toimi ihan yhtä nopeasti kuin pää haluaisi, mutta Crashin kanssa tilanne on ikään kuin päinvastoin: pää toimii nopeasti ja jalat vielä nopeammin. Onhan Crashillä hyvin vauhdikas suku, joten kyllä tästä äkäpussista saattaa vielä hyvinkin juoksija tulla ;)

© Heli K

isä:Silveline Gone 09,9aly ii:Speedway Kiin iii:Silverhill
iie:Welm's Didafel
ie:Rosalind Gone iei:Timi's Real Boy
iee:Welm's Memorial of Peregrine
emä:Serenity Burn 11,8a ei:Hurry Cane eii: Tornado Flash
eie:Top Speed Loisto
ee:Una Darkness eei:Gillmaster
eee:Beyonce Darkness


Kisat Burnout Stablen omistuksessa.
08.03.09 Glay VRER 8/14 26,0ke (2100m)
08.03.09 Luned Sporthorses 4/12 26,5ake 1000vEUR (2100m)
09.03.09 Taikasumuntalli VRER 4/8 23,8aly 150vEUR (1609m)
12.03.09 Narrilaiva 3/15 20,9ke 360vEUR (2100m)
13.03.09 Luned Sporthorses hll (1600m)
15.03.09 Unimag-korporaatio 2/12 24,8ake 3000vEUR (2100m)
15.03.09 Starberry hml (2100m)
17.03.09 Luned Sporthorses hll (2100m)
17.03.09 Starberry 5/11 23,2ake 1300vEUR (2100m)
22.03.09 Ravirata Keryston VRER 8/13 24,5ke (2100m)
23.03.09 Taikasumuntalli VRER hll (2100m)
31.03.09 Ravirata Ääretön VRER 2/16 24,3kex 250vEUR (2100m)
04.04.09 Kilpakeskus Louves VRER 6/16 17,9aly 100vEUR (1609m)

Kisat Lokin omistuksessa
13.04.2009 - Kerystonin Kartano - Tasoitusajo 2100m - 8/10 - 1.21,2ke
17.04.2009 - Luned Sporthorses - Ryhmäajo 1609m - 4/9 - 1.21,7 + 500ve
18.04.2009 - RaPu - Ryhmäajo 2100m - hll
25.04.2009 - PT Hennan Hepat - Tasoitusajo 2100m - 5/16 - 1.20,8kex + 200ve
28.06.2009 - Jymy - Ryhmäajo 2100m Cool Child - 5/12 - 1.18,4 x + 500ve
13.7.2009 - Narrilaivan - Tasoitusajo 2100m - 13/16 - 19,5
15.7.2009 - Narrilaivan - Tasoitusajo 2100m - 9/16 - 18,6
28.12.2009 - Rt Dese - Ryhmäajo 2100m - 4/12 - 1.19,7 + 250ve
30.12.2009 - Pohjantalli - Ryhmäajo 2100m - 8/12 - 19,2ake
01.01.2010 - BMW Trotters - Tasoitusajo 2100m - 3/10 - 1.19,1 - 800ve
03.01.2010 - RT Kent - Ryhmäajo 2100m - 4/4 - 1.19,5 + 300ve
03.01.2010 - Pohjantalli - Tasoitusajo 2100m - 4/9 - 19,0ke, 400ve
05.01.2010 - Savitaival - Ryhmäajo 1600m - 4/12 - 1.17,7 + 600ve
06.01.2010 - Narrilaivan - Tasoitusajo 2100m - 2/14 - 17,7 + 500ve
14.01.2010 - Savitaival - Ryhmäajo 2100m - 8/12 - 1.19,9 xx
14.01.2010 - Yep Trotters - Tasoitusajo 2100m - 4/8 - 18,5ke - 250ve
16.01.2010 - Kind Trotters - Tasoitusajo 2100m - 14/14 - 1.20,6ke
17.01.2010 - Yep Trotters - Ryhmäajo 1609m - 4/8 - 16,3aly - 220ve

04.04.2010 - KK Sadeyö - Ryhmäajo 1609m - 8/9 - 17,6aly
09.04.2010 - KK Sadeyö - Ryhmäajo 1609m - 12/12 - 18,2aly
10.04.2010 - Derby Racing Team - Tasoitusajo 2100m - 16/16 - 1.19,7
11.04.2010 - Derby Racing Team - Tasoitusajo 2100m - 6/16 - 16.1
11.04.2010 - Derby Racing Team - Tasoitusajo 2100m - ei tuloksia
18.04.2010 - Pohjantalli - Ryhmäajo 1609m - 8/11 - 17,5aly
19.04.2010 - KK Sadeyö - Ryhmäajo 1609m - 5/8 - 16,9aly
20.04.2010 - Rt Winsome - Ryhmäajo 2100m - 9/10 - 1.17,6
21.04.2010 - Rt Winsome - Ryhmäajo 2100m - ei tuloksia
22.04.2010 - Rt Winsome - Ryhmäajo 2100m - ei tuloksia
24.04.2010 - KK Sadeyö - Ryhmäajo 1609m - 5/8 - 16,9aly
30.04.2010 - KK Sadeyö - Ryhmäajo 1609m - 6/10 - 17,0aly

10.05.2010 - Luned Sporthorses - Ryhmäajo 1609m - 4/12 - 1.17,2 + 400ve
11.05.2010 - Luned Sporthorses - Ryhmäajo 1609m - 7/12 - 1.16,1
12.05.2010 - Luned Sporthorses - Ryhmäajo 1609m - 2/12 - 15,7 + 900ve
13.05.2010 - Luned Sporthorses - Ryhmäajo 1609m - 5/10 - 15,6 + 200ve

02.06.2010 - Narrilaivan - Ryhmäajo 2600m - HPL
04.06.2010 - Narrilaivan - Ryhmäajo 2600m - 1/11! - 16,0a + 800ve
06.06.2010 - Narrilaivan - Ryhmäajo 1600m - 2/12 - 15,9a + 500ve
09.06.2010 - Narrilaivan - Ryhmäajo 1600m - 1/12! - 15,7a + 1000ve
12.06.2010 - Narrilaivan - Ryhmäajo 1600m - 2/12 - 15,8a + 500ve
15.06.2010 - Narrilaivan - Ryhmäajo 1600m - 1/12! - 15,8a + 1000ve
16.06.2010 - KK Huoleton - Ryhmäajo 2100m - 4/11 - 1.17,5ake + 100ve
20.06.2010 - Ikirouta - Ryhmäajo 1609m IKR-Kesäkuun Eliittijuoksija - 6/12 - 1.16,2 x + 600ve
26.06.2010 - Derby Racing Team - Ryhmäajo 1609m - 5/10 - 1.16,4 + 200ve
27.06.2010 - Derby Racing Team - Ryhmäajo 1609m - 10/10 - 1.20,5
28.06.2010 - Derby Racing Team - Ryhmäajo 1609m - 2/10 - 1.16,1 + 1000ve
29.06.2010 - Derby Racing Team - Ryhmäajo 1609m - 1/6! - 1.15,0 + 2000ve

Design released by FarStyle via the studio of Site Creative. ©2008 Site Creative.